Hauptseite
METAR-TAF:

METAR-TAF

Flughäfen :

Schwäbisch Hall, Deutschland

Flugplatz Schwäbisch Hall-Hessental (Adolf Würth Airport)

Breite: 49-07-06N, Länge: 9-47-02E, Höhe: 398 m

Beobachtung

Neuester Wetterbericht von vor 39 Minuten, um 16:50 UTC
Wind 3 kt aus Ost
Temperatur 11°C
Luftfeuchtigkeit 47%
Luftdruck 1016 hPa
Sichtweite 10 km oder mehr
keine Wolken unter 1500 m und keine Kumulonimbus oder Gewitterwolken

METAR: EDTY 291650Z 08003KT CAVOK 11/M00 Q1016

Zeit: 19:29 (17:29 UTC)

Prognose

Neuester Wetterbericht von vor 3 Stunden und 29 Minuten, um 14:00 UTC
Gültige Prognose vom 29 um 15 UTC bis 29 um 24 UTC
Wind 3 kt aus unterschiedlichen Richtungen
Sichtweite 10 km oder mehr
keine Wolken unter 1500 m und keine Kumulonimbus oder Gewitterwolken

TAF: EDTY 291400Z 2915/2924 VRB03KT CAVOK

Wetterbeobachtungen und Prognosen von mehr als 4000 Flughäfen (METAR und TAF Bericht).

Die verfügbaren Stationen werden durch gelbe und rote Markierungen auf der Karte dargestellt.

Führen Sie die Maus auf sie, um den Namen der Station zu sehen.

Darauf klicken, um die Beobachtung von Wetterbeobachtungen und Prognosen zu sehen.

Um die Karte zu ändern : klicken Sie auf den grünen Tasten mit einem schwarzen Kreuz Zum Vergrößern, auf den grünen Button mit einem Gedankenstrich zu verkleinern, oder auf die grünen Pfeile für benachbarte Karten.


METAR-TAF: